Barbados Meteorological Services
Auto gathered TAF list
Powered by Apparatus software
For Flight WS2513
Contact Number 1-(246)-535-0021/2/3/4/5/6
WEB: http://www.barbadosweather.org

**********************************************

2018/02/23 18:42
TAF TXKF 231732Z 2318/2418 33007KT 9999 BKN035


**********************************************
2018/02/23 18:15
TAF TLPL 231700Z 2318/2418 07021KT 9999 SCT022
TEMPO 2318/2404 5000 SHRA FEW015TCU BKN018


**********************************************
2018/02/23 18:24
TAF TJSJ 231720Z 2318/2418 08015KT P6SM FEW030 SCT050
FM232300 11010KT P6SM SCT030
FM241300 08015G25KT P6SM SCT030 SCT050


**********************************************
2018/02/23 18:06
TAF TFFR 231600Z 2318/2418 07012KT 9999 SCT030 BKN050
TEMPO 2318/2321 07015G28KT 4000 SHRA BKN018TCU PROB40
TEMPO 2400/2418 4000 SHRA BKN018TCU


**********************************************
2018/02/23 18:06
TAF TBPB 231700Z 2318/2418 08024KT 9999 SCT016 BKN034
TEMPO 2318/2403 08024G36KT 4000 SHRA RA BKN014


**********************************************
2018/02/23 18:27
TAF TAF TAPA 231700Z 2318/2418 07011KT 9999 SCT018 PROB30
TEMPO 2318/2402 SHRA


**********************************************
2018/02/23 18:27
TAF KPHL 231724Z 2318/2424 08008KT 2SM -DZ BR OVC007
FM232100 12006KT 5SM BR OVC007
TEMPO 2322/2324 2SM -RA BR
FM240100 VRB03KT 2SM BR OVC005
TEMPO 2409/2413 1/2SM FG
FM241300 35004KT 3SM BR SCT005 OVC010
FM241600 01005KT P6SM BKN025 OVC045
FM242000 03005KT P6SM OVC035


**********************************************
2018/02/23 18:42
TAF KORF 231740Z 2318/2418 36008KT 1SM BR OVC002
FM232100 06003KT 3SM BR OVC004
FM240000 12003KT 4SM BR BKN012
FM240300 00000KT 2SM BR BKN005
FM240600 21006KT 1 1/2SM BR OVC004
FM241500 23008KT P6SM OVC012
FM241600 23009KT P6SM SCT250


**********************************************
2018/02/23 18:36
TAF KJFK 231733Z 2318/2424 10009KT 6SM BR VCSH SCT007 OVC010
TEMPO 2318/2321 4SM -RA BR BKN007 OVC010
FM232100 13007KT 3SM -RA BR OVC006
FM240200 22005KT 2SM -RA BR OVC005 WS020/27035KT
FM240700 27008KT P6SM OVC012
FM241400 30008KT P6SM FEW020 OVC080
FM241800 VRB05KT P6SM OVC080


**********************************************
2018/02/23 18:33
TAF KIAD 231729Z 2318/2424 15006KT 2SM -DZ BR BKN005 OVC025
FM232100 17006KT 3SM -DZ BR BKN008 OVC025
FM240300 20006KT 3SM BR SCT015 BKN025
FM240900 VRB03KT 3SM -DZ BR BKN015 OVC025
FM241200 VRB03KT 3SM -SHRADZ BR BKN008 OVC025
FM241800 08005KT 3SM -SHRA SCT025 OVC050


**********************************************
2018/02/23 18:36
TAF KEWR 231733Z 2318/2424 10005KT 6SM BR VCSH SCT008 OVC011
TEMPO 2318/2320 5SM -RA BR BKN008 OVC011
FM232000 11004KT 3SM -RA BR OVC008
FM240100 22004KT 2SM -RA BR OVC008 WS020/27035KT
FM240600 25005KT P6SM OVC010
FM241300 33006KT P6SM FEW020 OVC080
FM241800 35005KT P6SM OVC080


**********************************************
2018/02/23 18:36
TAF KCHS 231733Z 2318/2418 15008KT P6SM BKN050 BKN250
FM240800 VRB03KT 3SM BR SCT002
TEMPO 2410/2414 1SM BR SCT001
FM241500 21008KT P6SM SCT050 SCT250


**********************************************
2018/02/23 18:30
TAF KBOS 231724Z 2318/2424 10013KT P6SM FEW020 SCT100
FM231900 14009KT P6SM VCSH BKN060
FM232100 16009KT P6SM -RA OVC040
FM232300 17009KT P6SM -RA OVC025
FM240100 18008KT 6SM -RA BR OVC010
FM240300 20007KT 4SM BR OVC008
FM240700 25008KT P6SM BKN070


**********************************************
2018/02/23 18:39
TAF TAF CYYZ 231738Z 2318/2424 11010KT 6SM -RA BR SCT007 OVC012
TEMPO 2318/2319 11/2SM -DZ BR OVC004
FM231900 17006KT 11/2SM -DZ BR OVC003
TEMPO 2319/2322 5SM -RA BR OVC007
FM232200 22010G20KT 4SM -DZ BR OVC005
BECMG 2322/2324 P6SM NSW OVC012
FM240000 26010G20KT P6SM OVC012
TEMPO 2400/2402 OVC008
FM240400 29012KT P6SM OVC015
FM241100 29006KT P6SM BKN020 BKN200
FM241400 35010KT P6SM FEW020 SCT120 BKN220
BECMG 2418/2420 06008KT
RMK NXT FCST BY 232100Z


**********************************************
2018/02/23 18:42
TAF CYUL 231738Z 2318/2418 08008KT P6SM BKN090 OVC120
TEMPO 2318/2322 5SM -FZRA -FZDZ -SN -SG -PL BR BKN030 OVC090
FM232200 14015KT 6SM -RA BR OVC030
TEMPO 2322/2401 4SM -RA BR OVC020 PROB40 2322/2401 5SM -FZRA BR
FM240100 17010KT 2SM -DZ BR OVC008
BECMG 2401/2403 23010KT
FM240500 26015G25KT 6SM BR OVC015
FM240800 27015G25KT P6SM BKN030
BECMG 2410/2412 27010G20KT
FM241200 27010G20KT P6SM BKN030 BKN250
FM241500 29010G20KT P6SM FEW020
RMK NXT FCST BY 232100Z


**********************************************
2018/02/23 18:42
TAF CYOW 231738Z 2318/2418 09013KT P6SM BKN030 OVC070
TEMPO 2318/2321 5SM -FZRA -FZDZ -PL -SN BR BKN015 OVC030
FM232100 09012KT 4SM -FZRA BR OVC006
TEMPO 2321/2323 P6SM -FZRA OVC010
FM232300 09012KT 3SM -FZDZ BR OVC005 PROB40 2323/2401 6SM -FZRA BR
FM240100 22010G20KT 5SM BR OVC006
FM240500 26010G20KT P6SM BKN030
FM241200 27008KT 2SM BR BKN030 BKN250
FM241500 30009KT P6SM FEW020
RMK NXT FCST BY 232100Z


**********************************************
2018/02/23 18:42
TAF CYMX 231738Z 2318/2418 06007G17KT P6SM BKN090 OVC200
TEMPO 2318/2320 5SM -FZRA -FZDZ -SN -SG -PL BR BKN030 OVC090
FM232000 09012KT 6SM -FZRA BR OVC020
TEMPO 2320/2324 3SM -PLSN BR OVC006
FM240000 07007KT 1SM -RA BR OVC003
TEMPO 2400/2402 4SM -FZRA BR OVC005
FM240200 19005KT 1SM -DZ BR OVC003
FM240400 24012KT 2SM BR OVC005
FM240600 26015G25KT P6SM OVC012
FM241000 28010G20KT P6SM BKN030
FM241200 27007KT 2SM BR BKN030 BKN260
FM241500 30012KT P6SM FEW025
RMK NXT FCST BY 240000Z


**********************************************